createdAt,value
2019-03-11T00:00:33.197Z,2.50
2019-03-11T00:05:32.384Z,3.33
2019-03-11T00:10:35.127Z,4.73
2019-03-11T00:15:29.040Z,1.27
2019-03-11T00:20:24.778Z,3.00
2019-03-11T00:25:29.241Z,2.20
2019-03-11T00:35:43.641Z,5.97
2019-03-11T00:40:38.539Z,1.60
2019-03-11T00:45:32.625Z,2.27
2019-03-11T00:50:28.472Z,1.33
2019-03-11T00:55:26.712Z,1.10
2019-03-11T01:00:43.931Z,0.90
2019-03-11T01:05:46.508Z,0.93
2019-03-11T01:10:43.282Z,0.90
2019-03-11T01:15:42.691Z,0.70
2019-03-11T01:21:00.587Z,1.07
2019-03-11T01:25:48.337Z,0.93
2019-03-11T01:30:46.530Z,0.90
2019-03-11T01:35:42.600Z,0.93
2019-03-11T01:40:46.257Z,0.90
2019-03-11T01:45:40.529Z,0.80
2019-03-11T01:50:40.848Z,0.63
2019-03-11T01:55:37.223Z,0.90
2019-03-11T02:00:39.438Z,0.73
2019-03-11T02:05:41.455Z,0.90
2019-03-11T02:10:36.432Z,0.90
2019-03-11T02:15:32.876Z,1.13
2019-03-11T02:20:42.504Z,1.30
2019-03-11T02:25:47.480Z,1.03
2019-03-11T02:30:48.529Z,1.63
2019-03-11T02:35:57.720Z,1.07
2019-03-11T02:40:55.952Z,1.30
2019-03-11T02:45:53.768Z,1.17
2019-03-11T02:50:49.163Z,1.00
2019-03-11T02:55:50.695Z,1.07
2019-03-11T03:00:45.752Z,1.00
2019-03-11T03:05:43.463Z,0.87
2019-03-11T03:10:48.380Z,1.10
2019-03-11T03:15:44.021Z,0.93
2019-03-11T03:20:47.130Z,1.00
2019-03-11T03:25:44.690Z,0.93
2019-03-11T03:30:46.115Z,1.20
2019-03-11T03:35:48.102Z,1.27
2019-03-11T03:40:44.697Z,0.90
2019-03-11T03:45:51.027Z,0.80
2019-03-11T03:50:52.141Z,1.00
2019-03-11T03:55:55.803Z,0.73
2019-03-11T04:01:17.534Z,0.70
2019-03-11T04:06:17.654Z,1.30
2019-03-11T04:11:14.117Z,0.90
2019-03-11T04:16:11.535Z,0.80
2019-03-11T04:21:08.439Z,1.10
2019-03-11T04:26:11.957Z,1.27
2019-03-11T04:31:07.858Z,0.90
2019-03-11T04:36:06.973Z,1.00
2019-03-11T04:41:03.338Z,0.83
2019-03-11T04:45:58.387Z,1.47
2019-03-11T04:50:56.689Z,1.00
2019-03-11T04:55:51.919Z,0.90
2019-03-11T05:00:50.873Z,1.20
2019-03-11T05:05:48.986Z,1.20
2019-03-11T05:10:44.303Z,1.17
2019-03-11T05:15:42.939Z,1.43
2019-03-11T05:20:38.333Z,1.33
2019-03-11T05:25:37.002Z,1.53
2019-03-11T05:30:33.508Z,1.10
2019-03-11T05:35:31.116Z,1.00
2019-03-11T05:40:28.076Z,1.50
2019-03-11T05:45:30.258Z,1.53
2019-03-11T05:50:26.307Z,2.23
2019-03-11T05:55:25.095Z,9.47
2019-03-11T06:00:33.828Z,1.37
2019-03-11T06:05:34.165Z,2.83
2019-03-11T06:10:33.681Z,2.07
2019-03-11T06:15:38.634Z,1.50
2019-03-11T06:20:52.635Z,1.20
2019-03-11T06:25:54.714Z,1.10
2019-03-11T06:30:50.339Z,1.80
2019-03-11T06:35:46.811Z,1.70
2019-03-11T06:40:42.519Z,1.50
2019-03-11T06:45:38.642Z,1.57
2019-03-11T06:50:37.167Z,1.37
2019-03-11T06:55:32.588Z,2.17
2019-03-11T07:00:36.361Z,3.10
2019-03-11T07:05:41.824Z,2.53
2019-03-11T07:10:42.899Z,1.87
2019-03-11T07:15:43.129Z,2.47
2019-03-11T07:20:45.117Z,2.53
2019-03-11T07:25:40.682Z,3.60
2019-03-11T07:30:36.541Z,1.87
2019-03-11T07:35:40.033Z,3.00
2019-03-11T07:40:38.731Z,1.10
2019-03-11T07:45:35.032Z,1.70
2019-03-11T07:50:31.871Z,0.90
2019-03-11T07:55:30.231Z,0.93
2019-03-11T08:00:26.558Z,0.93
2019-03-11T08:05:27.336Z,0.80
2019-03-11T08:10:31.753Z,1.50
2019-03-11T08:15:37.708Z,2.00
2019-03-11T08:20:43.799Z,1.30
2019-03-11T08:25:49.334Z,1.07
2019-03-11T08:30:55.934Z,0.63
2019-03-11T08:35:56.065Z,0.70
2019-03-11T08:40:56.411Z,1.40
2019-03-11T08:46:02.717Z,1.00
2019-03-11T08:51:05.223Z,1.10
2019-03-11T08:56:05.387Z,1.00
2019-03-11T09:01:06.065Z,1.17
2019-03-11T09:06:06.114Z,1.53
2019-03-11T09:11:10.374Z,2.63
2019-03-11T09:16:07.735Z,1.10
2019-03-11T09:21:06.943Z,0.83
2019-03-11T09:26:01.621Z,0.97
2019-03-11T09:30:58.567Z,1.20
2019-03-11T09:36:07.794Z,0.87
2019-03-11T09:41:09.576Z,1.00
2019-03-11T09:46:07.367Z,1.23
2019-03-11T09:51:09.917Z,0.93
2019-03-11T09:56:10.830Z,1.10
2019-03-11T10:01:20.232Z,2.83
2019-03-11T10:06:16.188Z,3.00
2019-03-11T10:11:12.463Z,1.00
2019-03-11T10:16:12.947Z,1.00
2019-03-11T10:21:12.882Z,1.50
2019-03-11T10:26:11.242Z,1.20
2019-03-11T10:31:09.242Z,0.90
2019-03-11T10:36:07.357Z,1.20
2019-03-11T10:41:03.596Z,1.47
2019-03-11T10:45:58.583Z,1.17
2019-03-11T10:50:54.471Z,1.60
2019-03-11T10:55:59.840Z,0.90
2019-03-11T11:00:58.045Z,0.83
2019-03-11T11:05:54.833Z,1.07
2019-03-11T11:10:55.138Z,1.10
2019-03-11T11:15:52.969Z,0.73
2019-03-11T11:20:59.070Z,1.17
2019-03-11T11:26:03.317Z,0.80
2019-03-11T11:31:09.723Z,1.00
2019-03-11T11:36:12.546Z,1.23
2019-03-11T11:41:16.591Z,2.70
2019-03-11T11:46:11.524Z,1.20
2019-03-11T11:51:14.625Z,1.20
2019-03-11T11:56:10.118Z,3.00
2019-03-11T12:01:18.191Z,1.00
2019-03-11T12:06:21.335Z,1.37
2019-03-11T12:11:25.440Z,1.20
2019-03-11T12:16:28.203Z,0.90
2019-03-11T12:21:24.513Z,1.03
2019-03-11T12:26:22.516Z,0.77
2019-03-11T12:31:21.791Z,0.83
2019-03-11T12:36:18.283Z,0.63
2019-03-11T12:41:23.750Z,0.90
2019-03-11T12:46:21.054Z,1.00
2019-03-11T12:51:19.847Z,0.93
2019-03-11T12:56:15.309Z,1.30
2019-03-11T13:01:16.709Z,1.43
2019-03-11T13:06:16.301Z,1.43
2019-03-11T13:11:14.620Z,1.60
2019-03-11T13:16:18.202Z,0.93
2019-03-11T13:21:21.782Z,0.70
2019-03-11T13:26:20.695Z,0.73
2019-03-11T13:36:34.748Z,1.17
2019-03-11T13:41:42.143Z,0.93
2019-03-11T13:46:43.201Z,0.70
2019-03-11T13:56:52.308Z,1.20
2019-03-11T14:01:47.173Z,1.03
2019-03-11T14:06:43.798Z,1.27
2019-03-11T14:11:49.488Z,1.40
2019-03-11T14:16:45.511Z,2.33
2019-03-11T14:21:45.031Z,1.50
2019-03-11T14:26:43.713Z,0.73
2019-03-11T14:31:41.722Z,0.70
2019-03-11T14:36:37.349Z,2.53
2019-03-11T14:41:33.829Z,0.70
2019-03-11T14:46:29.696Z,0.60
2019-03-11T14:51:25.704Z,0.97
2019-03-11T15:01:43.249Z,0.87
2019-03-11T15:06:38.285Z,1.07
2019-03-11T15:11:33.780Z,1.00
2019-03-11T15:16:33.961Z,1.10
2019-03-11T15:21:28.173Z,1.20
2019-03-11T15:26:30.307Z,1.30
2019-03-11T15:31:23.911Z,1.80
2019-03-11T15:36:19.590Z,1.93
2019-03-11T15:41:17.534Z,1.50
2019-03-11T15:46:19.110Z,1.50
2019-03-11T15:51:21.602Z,1.47
2019-03-11T15:56:19.059Z,2.10
2019-03-11T16:01:21.111Z,1.67
2019-03-11T16:06:17.894Z,1.70
2019-03-11T16:11:17.812Z,1.43
2019-03-11T16:16:20.547Z,1.47
2019-03-11T16:21:17.991Z,1.80
2019-03-11T16:26:14.954Z,1.13
2019-03-11T16:31:12.961Z,5.47
2019-03-11T16:36:11.034Z,14.13
2019-03-11T16:41:10.894Z,1.23
2019-03-11T16:46:10.316Z,2.60
2019-03-11T16:51:07.741Z,4.27
2019-03-11T16:56:05.317Z,1.60
2019-03-11T17:01:08.160Z,1.60
2019-03-11T17:06:06.428Z,1.50
2019-03-11T17:11:02.564Z,1.43
2019-03-11T17:15:58.964Z,3.30
2019-03-11T17:20:54.459Z,2.13
2019-03-11T17:25:49.595Z,1.20
2019-03-11T17:30:48.477Z,1.40
2019-03-11T17:35:45.534Z,1.77
2019-03-11T17:40:41.849Z,1.93
2019-03-11T17:45:37.403Z,1.67
2019-03-11T17:50:32.319Z,2.03
2019-03-11T17:55:27.521Z,1.73
2019-03-11T18:00:31.586Z,1.97
2019-03-11T18:05:27.980Z,1.80
2019-03-11T18:10:24.002Z,1.90
2019-03-11T18:15:20.563Z,2.07
2019-03-11T18:20:19.761Z,2.40
2019-03-11T18:25:26.818Z,3.00
2019-03-11T18:30:28.195Z,26.67
2019-03-11T18:35:23.848Z,3.70
2019-03-11T18:40:23.033Z,2.53
2019-03-11T18:45:21.586Z,2.87
2019-03-11T18:50:27.612Z,2.77
2019-03-11T18:55:24.992Z,3.00
2019-03-11T19:00:29.956Z,4.50
2019-03-11T19:05:25.966Z,4.10
2019-03-11T19:10:41.158Z,3.17
2019-03-11T19:15:21.727Z,3.17
2019-03-11T19:20:19.143Z,3.37
2019-03-11T19:25:22.184Z,3.63
2019-03-11T19:30:30.010Z,4.93
2019-03-11T19:35:24.602Z,5.17
2019-03-11T19:40:28.203Z,5.50
2019-03-11T19:45:33.924Z,5.53
2019-03-11T19:50:34.085Z,5.10
2019-03-11T19:55:30.733Z,5.83
2019-03-11T20:00:28.763Z,5.80
2019-03-11T20:05:35.825Z,5.33
2019-03-11T20:10:31.513Z,5.77
2019-03-11T20:15:33.687Z,4.57
2019-03-11T20:20:32.333Z,5.50
2019-03-11T20:25:38.488Z,4.87
2019-03-11T20:30:41.741Z,5.57
2019-03-11T20:35:37.103Z,5.50
2019-03-11T20:40:34.537Z,6.10
2019-03-11T20:45:29.727Z,6.73
2019-03-11T20:50:27.071Z,6.77
2019-03-11T20:55:22.167Z,7.70
2019-03-11T21:00:24.651Z,6.33
2019-03-11T21:05:22.991Z,7.33
2019-03-11T21:10:22.733Z,6.60
2019-03-11T21:15:22.702Z,6.77
2019-03-11T21:20:23.719Z,7.40
2019-03-11T21:25:20.035Z,6.53
2019-03-11T21:30:24.012Z,6.47
2019-03-11T21:35:26.417Z,6.20
2019-03-11T21:40:26.956Z,7.03
2019-03-11T21:45:34.095Z,6.07
2019-03-11T21:50:30.031Z,7.30
2019-03-11T21:55:30.981Z,8.40
2019-03-11T22:00:34.283Z,14.30
2019-03-11T22:05:27.643Z,9.27
2019-03-11T22:10:24.363Z,8.20
2019-03-11T22:15:30.482Z,7.23
2019-03-11T22:20:30.914Z,7.63
2019-03-11T22:25:26.180Z,7.30
2019-03-11T22:30:29.739Z,8.07
2019-03-11T22:40:57.240Z,8.37
2019-03-11T22:45:56.685Z,8.57
2019-03-11T22:51:10.476Z,8.50
2019-03-11T22:56:11.757Z,9.17
2019-03-11T23:01:12.026Z,9.43
2019-03-11T23:06:07.881Z,9.87
2019-03-11T23:11:06.085Z,13.20
2019-03-11T23:16:11.633Z,10.37
2019-03-11T23:21:13.179Z,10.60
2019-03-11T23:26:16.625Z,10.77
2019-03-11T23:31:09.487Z,8.93
2019-03-11T23:36:13.050Z,8.50
2019-03-11T23:41:09.498Z,8.03
2019-03-11T23:46:09.700Z,8.63
2019-03-11T23:51:09.902Z,7.50
2019-03-11T23:56:05.710Z,8.67
